createdAt,value
2022-10-09T00:00:38.256Z,8.98
2022-10-09T00:01:39.723Z,11.23
2022-10-09T00:02:42.621Z,9.75
2022-10-09T00:03:46.019Z,11.65
2022-10-09T00:04:47.576Z,10.52
2022-10-09T00:05:49.064Z,11.05
2022-10-09T00:06:50.548Z,11.45
2022-10-09T00:07:52.078Z,9.60
2022-10-09T00:08:53.652Z,8.32
2022-10-09T00:09:55.108Z,10.68
2022-10-09T00:10:56.597Z,11.77
2022-10-09T00:11:58.031Z,13.15
2022-10-09T00:12:59.513Z,11.18
2022-10-09T00:14:01.339Z,10.40
2022-10-09T00:15:03.613Z,10.45
2022-10-09T00:16:07.874Z,11.15
2022-10-09T00:17:09.400Z,10.05
2022-10-09T00:18:14.925Z,9.20
2022-10-09T00:19:16.378Z,12.32
2022-10-09T00:20:17.962Z,8.45
2022-10-09T00:21:22.160Z,15.57
2022-10-09T00:22:23.607Z,14.10
2022-10-09T00:23:25.246Z,11.23
2022-10-09T00:24:26.695Z,10.77
2022-10-09T00:25:28.151Z,9.73
2022-10-09T00:26:30.016Z,10.23
2022-10-09T00:27:31.498Z,10.77
2022-10-09T00:28:37.685Z,8.38
2022-10-09T00:29:39.961Z,15.15
2022-10-09T00:30:41.496Z,14.45
2022-10-09T00:31:43.015Z,14.77
2022-10-09T00:32:44.455Z,12.73
2022-10-09T00:33:47.712Z,13.13
2022-10-09T00:34:49.173Z,12.27
2022-10-09T00:35:50.667Z,9.82
2022-10-09T00:36:52.093Z,13.32
2022-10-09T00:37:53.535Z,8.68
2022-10-09T00:38:55.467Z,13.02
2022-10-09T00:39:56.936Z,18.13
2022-10-09T00:40:58.420Z,19.58
2022-10-09T00:42:00.426Z,18.80
2022-10-09T00:43:02.090Z,16.00
2022-10-09T00:44:42.131Z,17.40
2022-10-09T00:45:48.355Z,11.90
2022-10-09T00:46:51.957Z,15.88
2022-10-09T00:47:57.519Z,18.85
2022-10-09T00:49:11.191Z,12.48
2022-10-09T00:50:17.170Z,13.65
2022-10-09T00:51:18.756Z,13.23
2022-10-09T00:52:21.341Z,17.95
2022-10-09T00:53:26.553Z,14.90
2022-10-09T00:54:32.176Z,11.27
2022-10-09T00:55:35.381Z,12.95
2022-10-09T00:56:37.074Z,15.55
2022-10-09T00:57:39.712Z,16.65
2022-10-09T00:58:41.247Z,12.98
2022-10-09T00:59:42.943Z,12.73
2022-10-09T01:00:44.392Z,19.17
2022-10-09T01:01:46.709Z,15.05
2022-10-09T01:02:48.653Z,19.00
2022-10-09T01:03:50.246Z,18.73
2022-10-09T01:04:53.075Z,12.77
2022-10-09T01:06:09.973Z,15.05
2022-10-09T01:07:22.334Z,15.80
2022-10-09T01:08:27.955Z,12.13
2022-10-09T01:09:38.158Z,17.45
2022-10-09T01:10:44.547Z,16.00
2022-10-09T01:11:54.655Z,14.48
2022-10-09T01:13:06.477Z,15.27
2022-10-09T01:14:18.405Z,18.08
2022-10-09T01:15:27.843Z,14.82
2022-10-09T01:16:33.147Z,14.88
2022-10-09T01:17:41.412Z,16.77
2022-10-09T01:18:48.564Z,14.02
2022-10-09T01:20:13.253Z,19.33
2022-10-09T01:21:19.610Z,11.32
2022-10-09T01:22:32.852Z,17.83
2022-10-09T01:23:47.322Z,18.63
2022-10-09T01:24:54.789Z,15.85
2022-10-09T01:26:06.842Z,14.38
2022-10-09T01:27:15.048Z,17.80
2022-10-09T01:28:19.248Z,18.58
2022-10-09T01:29:22.507Z,15.25
2022-10-09T01:30:23.949Z,11.63
2022-10-09T01:31:30.641Z,18.93
2022-10-09T01:32:35.091Z,18.58
2022-10-09T01:33:37.359Z,14.25
2022-10-09T01:34:41.391Z,21.35
2022-10-09T01:35:44.724Z,16.00
2022-10-09T01:36:46.978Z,18.83
2022-10-09T01:37:51.569Z,14.18
2022-10-09T01:38:53.954Z,22.63
2022-10-09T01:39:56.514Z,17.52
2022-10-09T01:40:58.665Z,13.82
2022-10-09T01:42:01.049Z,14.38
2022-10-09T01:43:04.230Z,23.92
2022-10-09T01:44:15.904Z,17.23
2022-10-09T01:45:17.383Z,18.50
2022-10-09T01:46:21.821Z,19.15
2022-10-09T01:47:23.871Z,17.75
2022-10-09T01:48:25.465Z,18.33
2022-10-09T01:49:44.897Z,14.45
2022-10-09T01:50:52.611Z,13.50
2022-10-09T01:52:00.733Z,19.23
2022-10-09T01:53:06.313Z,15.73
2022-10-09T01:54:10.820Z,14.90
2022-10-09T01:55:32.306Z,23.65
2022-10-09T01:56:37.637Z,20.58
2022-10-09T01:57:45.496Z,15.68
2022-10-09T01:58:54.412Z,17.20
2022-10-09T01:59:59.314Z,22.25
2022-10-09T02:01:06.550Z,17.45
2022-10-09T02:02:08.849Z,11.48
2022-10-09T02:03:15.096Z,15.63
2022-10-09T02:04:18.396Z,20.05
2022-10-09T02:05:22.971Z,15.48
2022-10-09T02:06:27.226Z,14.23
2022-10-09T02:07:31.169Z,13.93
2022-10-09T02:08:33.764Z,13.63
2022-10-09T02:09:37.179Z,22.02
2022-10-09T02:10:40.958Z,24.10
2022-10-09T02:11:47.938Z,11.52
2022-10-09T02:12:53.612Z,20.70
2022-10-09T02:13:56.627Z,19.23
2022-10-09T02:14:58.242Z,17.90
2022-10-09T02:16:07.283Z,10.52
2022-10-09T02:17:13.366Z,23.40
2022-10-09T02:18:20.341Z,22.15
2022-10-09T02:19:26.525Z,12.57
2022-10-09T02:20:32.813Z,18.10
2022-10-09T02:21:46.085Z,15.00
2022-10-09T02:22:49.230Z,17.05
2022-10-09T02:23:51.549Z,21.85
2022-10-09T02:24:53.397Z,17.65
2022-10-09T02:25:55.190Z,17.83
2022-10-09T02:26:58.327Z,21.00
2022-10-09T02:28:00.142Z,15.98
2022-10-09T02:29:03.496Z,26.50
2022-10-09T02:30:08.791Z,12.48
2022-10-09T02:31:15.959Z,20.80
2022-10-09T02:32:17.706Z,21.48
2022-10-09T02:33:26.903Z,32.00
2022-10-09T02:34:28.337Z,38.90
2022-10-09T02:35:29.801Z,72.45
2022-10-09T02:36:32.347Z,221.20
2022-10-09T02:37:33.819Z,168.95
2022-10-09T02:38:35.234Z,17.60
2022-10-09T02:39:36.688Z,104.20
2022-10-09T02:40:38.112Z,184.68
2022-10-09T02:41:39.667Z,156.77
2022-10-09T02:42:41.085Z,82.88
2022-10-09T02:43:42.651Z,165.40
2022-10-09T02:44:45.481Z,27.52
2022-10-09T02:45:46.895Z,102.32
2022-10-09T02:46:48.355Z,132.02
2022-10-09T02:47:49.872Z,51.97
2022-10-09T02:48:51.463Z,25.27
2022-10-09T02:49:52.910Z,83.55
2022-10-09T02:50:54.396Z,20.48
2022-10-09T02:51:55.829Z,20.65
2022-10-09T02:52:57.273Z,26.42
2022-10-09T02:53:58.772Z,17.50
2022-10-09T02:55:00.202Z,16.75
2022-10-09T02:56:01.646Z,13.88
2022-10-09T02:57:03.308Z,28.20
2022-10-09T02:58:04.776Z,26.25
2022-10-09T02:59:06.267Z,20.77
2022-10-09T03:00:10.678Z,17.75
2022-10-09T03:01:12.711Z,17.98
2022-10-09T03:02:14.496Z,15.23
2022-10-09T03:03:16.019Z,18.33
2022-10-09T03:04:17.486Z,23.95
2022-10-09T03:05:19.101Z,22.67
2022-10-09T03:06:22.762Z,17.73
2022-10-09T03:07:24.186Z,15.88
2022-10-09T03:08:25.590Z,17.48
2022-10-09T03:09:31.432Z,23.02
2022-10-09T03:10:36.961Z,21.48
2022-10-09T03:11:38.639Z,20.85
2022-10-09T03:12:40.041Z,25.13
2022-10-09T03:13:41.757Z,23.83
2022-10-09T03:14:43.177Z,18.27
2022-10-09T03:15:45.984Z,18.20
2022-10-09T03:16:47.440Z,18.23
2022-10-09T03:17:48.888Z,17.08
2022-10-09T03:18:51.500Z,14.95
2022-10-09T03:19:52.918Z,12.85
2022-10-09T03:20:54.362Z,25.13
2022-10-09T03:21:55.819Z,17.92
2022-10-09T03:22:57.296Z,18.60
2022-10-09T03:23:58.786Z,13.10
2022-10-09T03:25:00.267Z,19.92
2022-10-09T03:26:04.218Z,14.82
2022-10-09T03:27:05.654Z,18.05
2022-10-09T03:28:07.171Z,14.52
2022-10-09T03:29:08.680Z,13.55
2022-10-09T03:30:10.799Z,15.70
2022-10-09T03:31:33.061Z,25.13
2022-10-09T03:32:36.068Z,10.98
2022-10-09T03:33:37.866Z,13.85
2022-10-09T03:34:39.349Z,24.40
2022-10-09T03:35:41.046Z,21.02
2022-10-09T03:36:42.521Z,16.33
2022-10-09T03:37:43.963Z,20.75
2022-10-09T03:38:45.458Z,18.73
2022-10-09T03:39:46.890Z,18.33
2022-10-09T03:40:48.411Z,16.77
2022-10-09T03:41:49.821Z,17.35
2022-10-09T03:42:51.558Z,15.65
2022-10-09T03:43:53.156Z,19.52
2022-10-09T03:44:54.576Z,17.55
2022-10-09T03:46:00.354Z,17.98
2022-10-09T03:47:04.051Z,24.05
2022-10-09T03:48:05.582Z,22.60
2022-10-09T03:49:07.093Z,22.45
2022-10-09T03:50:09.557Z,26.92
2022-10-09T03:51:11.059Z,20.85
2022-10-09T03:52:12.489Z,25.83
2022-10-09T03:53:14.900Z,32.92
2022-10-09T03:54:16.355Z,39.10
2022-10-09T03:55:17.820Z,29.52
2022-10-09T03:56:19.323Z,24.95
2022-10-09T03:57:20.786Z,29.98
2022-10-09T03:58:22.335Z,25.63
2022-10-09T03:59:23.780Z,33.25
2022-10-09T04:00:25.927Z,26.73
2022-10-09T04:01:27.450Z,18.77
2022-10-09T04:02:31.344Z,20.92
2022-10-09T04:03:32.771Z,27.83
2022-10-09T04:04:34.244Z,30.85
2022-10-09T04:05:35.661Z,26.60
2022-10-09T04:06:37.112Z,33.05
2022-10-09T04:07:38.638Z,34.90
2022-10-09T04:08:40.080Z,31.42
2022-10-09T04:09:41.499Z,27.98
2022-10-09T04:10:43.002Z,34.72
2022-10-09T04:11:44.518Z,32.05
2022-10-09T04:12:46.074Z,32.88
2022-10-09T04:13:47.690Z,24.08
2022-10-09T04:14:49.144Z,29.90
2022-10-09T04:15:50.903Z,27.90
2022-10-09T04:16:52.348Z,18.65
2022-10-09T04:17:55.189Z,35.17
2022-10-09T04:18:56.609Z,30.08
2022-10-09T04:19:58.107Z,37.55
2022-10-09T04:20:59.554Z,26.77
2022-10-09T04:22:00.955Z,29.70
2022-10-09T04:23:02.375Z,30.60
2022-10-09T04:24:04.176Z,31.25
2022-10-09T04:25:06.079Z,30.38
2022-10-09T04:26:07.518Z,35.28
2022-10-09T04:27:08.969Z,34.78
2022-10-09T04:28:10.439Z,59.00
2022-10-09T04:29:12.151Z,47.33
2022-10-09T04:30:13.647Z,66.25
2022-10-09T04:31:15.142Z,32.00
2022-10-09T04:32:16.629Z,42.60
2022-10-09T04:33:19.643Z,48.25
2022-10-09T04:34:21.139Z,39.10
2022-10-09T04:35:22.593Z,49.90
2022-10-09T04:36:24.362Z,42.65
2022-10-09T04:37:25.767Z,38.55
2022-10-09T04:38:27.199Z,41.08
2022-10-09T04:39:28.659Z,33.70
2022-10-09T04:40:30.071Z,45.85
2022-10-09T04:41:34.742Z,33.22
2022-10-09T04:42:39.493Z,35.28
2022-10-09T04:43:40.965Z,36.20
2022-10-09T04:44:42.364Z,44.35
2022-10-09T04:45:43.886Z,33.05
2022-10-09T04:46:45.388Z,33.85
2022-10-09T04:47:46.905Z,41.70
2022-10-09T04:48:50.214Z,46.15
2022-10-09T04:49:51.648Z,37.35
2022-10-09T04:50:53.059Z,42.05
2022-10-09T04:51:54.524Z,35.85
2022-10-09T04:52:55.953Z,34.70
2022-10-09T04:54:00.637Z,23.00
2022-10-09T04:55:02.381Z,39.47
2022-10-09T04:56:06.626Z,29.70
2022-10-09T04:57:08.036Z,45.75
2022-10-09T04:58:10.936Z,39.30
2022-10-09T04:59:12.416Z,54.92
2022-10-09T05:00:14.688Z,34.70
2022-10-09T05:01:17.901Z,50.47
2022-10-09T05:02:19.607Z,31.80
2022-10-09T05:03:21.185Z,68.05
2022-10-09T05:04:23.943Z,34.55
2022-10-09T05:05:25.514Z,29.33
2022-10-09T05:06:26.932Z,54.85
2022-10-09T05:07:28.382Z,22.20
2022-10-09T05:08:30.652Z,29.15
2022-10-09T05:09:32.097Z,16.83
2022-10-09T05:10:33.551Z,23.60
2022-10-09T05:11:37.221Z,28.35
2022-10-09T05:12:41.973Z,26.08
2022-10-09T05:13:45.065Z,59.92
2022-10-09T05:14:46.583Z,50.83
2022-10-09T05:15:48.028Z,45.47
2022-10-09T05:17:12.523Z,33.03
2022-10-09T05:18:11.999Z,29.58
2022-10-09T05:19:13.464Z,31.92
2022-10-09T05:20:16.336Z,31.77
2022-10-09T05:21:18.348Z,23.83
2022-10-09T05:22:19.839Z,18.20
2022-10-09T05:23:21.333Z,42.78
2022-10-09T05:24:22.780Z,53.88
2022-10-09T05:25:24.216Z,42.78
2022-10-09T05:26:26.873Z,43.60
2022-10-09T05:27:28.345Z,30.42
2022-10-09T05:28:29.998Z,32.28
2022-10-09T05:29:31.456Z,43.33
2022-10-09T05:30:32.861Z,50.78
2022-10-09T05:31:34.303Z,45.95
2022-10-09T05:32:35.844Z,78.47
2022-10-09T05:33:37.283Z,16.95
2022-10-09T05:34:38.766Z,101.85
2022-10-09T05:35:41.583Z,86.80
2022-10-09T05:36:43.096Z,78.30
2022-10-09T05:37:45.001Z,60.78
2022-10-09T05:38:46.798Z,89.55
2022-10-09T05:39:48.204Z,113.95
2022-10-09T05:40:50.781Z,223.43
2022-10-09T05:41:52.206Z,256.42
2022-10-09T05:42:53.690Z,310.88
2022-10-09T05:43:59.586Z,212.00
2022-10-09T05:45:01.037Z,167.25
2022-10-09T05:46:07.427Z,379.90
2022-10-09T05:47:08.916Z,311.05
2022-10-09T05:48:10.376Z,398.08
2022-10-09T05:49:11.802Z,524.72
2022-10-09T05:50:13.229Z,472.75
2022-10-09T05:51:18.309Z,467.52
2022-10-09T05:52:19.734Z,232.77
2022-10-09T05:53:21.192Z,344.65
2022-10-09T05:54:22.669Z,376.40
2022-10-09T05:55:25.476Z,366.00
2022-10-09T05:56:28.565Z,593.88
2022-10-09T05:57:30.083Z,446.42
2022-10-09T05:58:31.538Z,356.85
2022-10-09T05:59:32.960Z,232.93
2022-10-09T06:00:34.373Z,258.60
2022-10-09T06:01:38.108Z,429.17
2022-10-09T06:02:39.656Z,291.73
2022-10-09T06:03:41.117Z,423.27
2022-10-09T06:04:42.527Z,362.63
2022-10-09T06:05:43.922Z,314.52
2022-10-09T06:06:47.345Z,198.90
2022-10-09T06:07:49.128Z,318.75
2022-10-09T06:08:51.107Z,230.27
2022-10-09T06:09:52.526Z,338.55
2022-10-09T06:10:53.980Z,139.60
2022-10-09T06:11:55.460Z,676.65
2022-10-09T06:12:57.014Z,570.15
2022-10-09T06:14:00.064Z,608.30
2022-10-09T06:15:01.532Z,813.38
2022-10-09T06:16:03.037Z,755.15
2022-10-09T06:17:04.581Z,520.58
2022-10-09T06:18:06.111Z,394.80
2022-10-09T06:19:10.078Z,466.10
2022-10-09T06:20:11.534Z,694.22
2022-10-09T06:21:14.423Z,573.83
2022-10-09T06:22:17.336Z,423.33
2022-10-09T06:23:18.788Z,489.52
2022-10-09T06:24:25.829Z,369.98
2022-10-09T06:25:29.518Z,492.75
2022-10-09T06:26:31.555Z,668.70
2022-10-09T06:27:33.105Z,366.30
2022-10-09T06:28:35.457Z,316.92
2022-10-09T06:29:37.122Z,369.83
2022-10-09T06:30:39.028Z,646.75
2022-10-09T06:31:40.743Z,617.60
2022-10-09T06:32:42.153Z,364.33
2022-10-09T06:33:45.028Z,464.42
2022-10-09T06:34:46.565Z,421.77
2022-10-09T06:35:47.988Z,514.05
2022-10-09T06:36:49.457Z,308.65
2022-10-09T06:37:52.227Z,614.72
2022-10-09T06:38:54.071Z,380.70
2022-10-09T06:39:55.497Z,623.70
2022-10-09T06:41:01.718Z,633.58
2022-10-09T06:42:03.303Z,330.02
2022-10-09T06:43:05.553Z,179.30
2022-10-09T06:44:14.085Z,296.88
2022-10-09T06:45:18.169Z,364.80
2022-10-09T06:46:21.504Z,160.23
2022-10-09T06:47:23.069Z,520.03
2022-10-09T06:48:24.587Z,404.58
2022-10-09T06:49:26.387Z,454.15
2022-10-09T06:50:27.852Z,258.55
2022-10-09T06:51:30.159Z,456.73
2022-10-09T06:52:31.556Z,186.10
2022-10-09T06:53:36.073Z,434.88
2022-10-09T06:54:37.520Z,326.88
2022-10-09T06:55:39.135Z,417.20
2022-10-09T06:56:40.975Z,603.65
2022-10-09T06:57:42.485Z,209.73
2022-10-09T06:58:44.550Z,379.60
2022-10-09T06:59:47.314Z,598.17
2022-10-09T07:00:48.862Z,285.05
2022-10-09T07:01:50.342Z,569.13
2022-10-09T07:02:52.367Z,299.35
2022-10-09T07:03:56.659Z,111.10
2022-10-09T07:04:58.299Z,51.67
2022-10-09T07:06:07.263Z,169.30
2022-10-09T07:07:08.805Z,285.52
2022-10-09T07:08:10.296Z,98.45
2022-10-09T07:09:14.483Z,243.93
2022-10-09T07:10:16.091Z,303.27
2022-10-09T07:11:19.331Z,112.40
2022-10-09T07:12:20.874Z,92.05
2022-10-09T07:13:22.305Z,128.63
2022-10-09T07:14:23.761Z,112.43
2022-10-09T07:15:25.301Z,127.65
2022-10-09T07:16:28.753Z,77.82
2022-10-09T07:17:30.442Z,116.05
2022-10-09T07:18:32.813Z,28.27
2022-10-09T07:19:34.306Z,207.50
2022-10-09T07:20:36.052Z,146.75
2022-10-09T07:21:39.165Z,20.52
2022-10-09T07:22:40.624Z,23.98
2022-10-09T07:23:42.652Z,19.45
2022-10-09T07:24:45.404Z,15.68
2022-10-09T07:25:46.910Z,19.13
2022-10-09T07:26:48.743Z,26.42
2022-10-09T07:27:50.213Z,21.55
2022-10-09T07:28:52.592Z,143.63
2022-10-09T07:29:54.012Z,20.52
2022-10-09T07:30:55.926Z,22.38
2022-10-09T07:31:57.399Z,25.77
2022-10-09T07:32:58.837Z,36.53
2022-10-09T07:34:00.470Z,25.02
2022-10-09T07:35:01.994Z,41.33
2022-10-09T07:36:05.090Z,14.88
2022-10-09T07:37:06.577Z,32.90
2022-10-09T07:38:08.035Z,30.55
2022-10-09T07:39:09.495Z,25.98
2022-10-09T07:40:12.365Z,47.08
2022-10-09T07:41:13.831Z,30.60
2022-10-09T07:42:15.312Z,26.08
2022-10-09T07:43:17.020Z,178.82
2022-10-09T07:44:18.878Z,20.60
2022-10-09T07:45:20.401Z,11.68
2022-10-09T07:46:24.230Z,19.90
2022-10-09T07:47:25.715Z,24.33
2022-10-09T07:48:28.059Z,27.25
2022-10-09T07:49:29.469Z,28.75
2022-10-09T07:50:30.900Z,39.28
2022-10-09T07:51:32.954Z,28.05
2022-10-09T07:52:34.395Z,18.95
2022-10-09T07:53:36.161Z,21.95
2022-10-09T07:54:37.711Z,33.97
2022-10-09T07:55:44.827Z,17.40
2022-10-09T07:56:46.358Z,26.55
2022-10-09T07:57:47.848Z,293.45
2022-10-09T07:58:50.305Z,25.00
2022-10-09T07:59:51.702Z,29.45
2022-10-09T08:00:53.142Z,25.92
2022-10-09T08:01:54.642Z,18.83
2022-10-09T08:02:56.154Z,25.42
2022-10-09T08:03:58.642Z,20.42
2022-10-09T08:05:00.134Z,19.48
2022-10-09T08:06:02.147Z,27.15
2022-10-09T08:07:03.747Z,13.73
2022-10-09T08:08:05.468Z,15.32
2022-10-09T08:09:07.785Z,23.52
2022-10-09T08:10:10.052Z,10.68
2022-10-09T08:11:14.739Z,12.60
2022-10-09T08:12:16.192Z,11.27
2022-10-09T08:13:17.680Z,13.38
2022-10-09T08:14:19.697Z,19.48
2022-10-09T08:15:21.341Z,15.63
2022-10-09T08:16:24.355Z,9.23
2022-10-09T08:17:25.948Z,15.63
2022-10-09T08:18:27.388Z,14.77
2022-10-09T08:19:28.888Z,18.73
2022-10-09T08:20:30.356Z,16.17
2022-10-09T08:21:31.807Z,13.40
2022-10-09T08:22:33.321Z,10.68
2022-10-09T08:23:35.120Z,12.27
2022-10-09T08:24:36.528Z,18.55
2022-10-09T08:25:38.037Z,14.35
2022-10-09T08:26:40.846Z,14.45
2022-10-09T08:27:42.569Z,12.30
2022-10-09T08:28:44.417Z,10.85
2022-10-09T08:29:45.848Z,12.10
2022-10-09T08:30:47.334Z,13.43
2022-10-09T08:31:48.819Z,10.18
2022-10-09T08:32:50.877Z,14.07
2022-10-09T08:33:53.410Z,12.32
2022-10-09T08:34:54.904Z,10.80
2022-10-09T08:36:05.989Z,12.68
2022-10-09T08:37:07.405Z,11.80
2022-10-09T08:38:17.722Z,15.65
2022-10-09T08:39:27.065Z,19.80
2022-10-09T08:40:38.673Z,12.38
2022-10-09T08:41:44.694Z,12.18
2022-10-09T08:42:56.238Z,12.82
2022-10-09T08:45:05.283Z,14.43
2022-10-09T08:46:18.412Z,16.45
2022-10-09T08:47:26.797Z,15.90
2022-10-09T08:48:29.862Z,18.77
2022-10-09T08:49:40.367Z,13.23
2022-10-09T08:50:47.269Z,8.65
2022-10-09T08:51:48.858Z,18.80
2022-10-09T08:52:58.004Z,17.58
2022-10-09T08:54:05.298Z,17.33
2022-10-09T08:55:17.202Z,16.88
2022-10-09T08:56:18.680Z,16.67
2022-10-09T08:57:22.596Z,13.27
2022-10-09T08:58:28.773Z,11.43
2022-10-09T08:59:31.201Z,14.18
2022-10-09T09:00:39.370Z,7.60
2022-10-09T09:01:46.826Z,10.30
2022-10-09T09:03:18.963Z,8.27
2022-10-09T09:04:39.902Z,12.18
2022-10-09T09:05:48.452Z,12.00
2022-10-09T09:07:01.314Z,11.73
2022-10-09T09:08:09.193Z,10.50
2022-10-09T09:09:19.424Z,11.18
2022-10-09T09:10:33.500Z,10.32
2022-10-09T09:11:41.781Z,9.68
2022-10-09T09:12:50.318Z,11.98
2022-10-09T09:14:02.826Z,11.75
2022-10-09T09:15:21.751Z,11.45
2022-10-09T09:16:31.202Z,9.32
2022-10-09T09:17:43.615Z,10.20
2022-10-09T09:18:54.160Z,10.35
2022-10-09T09:20:10.030Z,12.97
2022-10-09T09:21:23.812Z,13.20
2022-10-09T09:22:26.368Z,6.70
2022-10-09T09:23:31.225Z,10.63
2022-10-09T09:24:37.615Z,8.32
2022-10-09T09:25:41.619Z,12.18
2022-10-09T09:26:45.108Z,12.95
2022-10-09T09:27:48.903Z,8.50
2022-10-09T09:29:01.643Z,7.28
2022-10-09T09:30:13.559Z,9.93
2022-10-09T09:31:18.992Z,12.60
2022-10-09T09:32:23.564Z,11.35
2022-10-09T09:33:37.376Z,9.52
2022-10-09T09:34:42.241Z,9.35
2022-10-09T09:35:52.074Z,9.60
2022-10-09T09:36:56.818Z,13.07
2022-10-09T09:37:58.321Z,9.88
2022-10-09T09:39:45.556Z,7.82
2022-10-09T09:40:45.891Z,13.43
2022-10-09T09:41:47.189Z,10.52
2022-10-09T09:42:50.976Z,8.43
2022-10-09T09:43:52.685Z,11.23
2022-10-09T09:44:59.288Z,7.70
2022-10-09T09:46:01.694Z,8.50
2022-10-09T09:47:03.257Z,7.15
2022-10-09T09:48:11.862Z,9.75
2022-10-09T09:49:17.745Z,11.23
2022-10-09T09:50:46.017Z,5.68
2022-10-09T09:51:50.891Z,7.18
2022-10-09T09:52:54.047Z,7.53
2022-10-09T09:53:57.538Z,8.57
2022-10-09T09:54:59.319Z,14.00
2022-10-09T09:56:01.020Z,11.38
2022-10-09T09:57:15.073Z,10.98
2022-10-09T09:58:22.573Z,9.27
2022-10-09T09:59:32.316Z,10.55
2022-10-09T10:00:34.895Z,8.18
2022-10-09T10:01:36.528Z,11.65
2022-10-09T10:02:38.173Z,12.65
2022-10-09T10:03:48.441Z,5.50
2022-10-09T10:04:52.366Z,7.07
2022-10-09T10:05:54.327Z,8.23
2022-10-09T10:06:55.884Z,9.35
2022-10-09T10:07:57.305Z,5.20
2022-10-09T10:09:01.548Z,6.82
2022-10-09T10:10:05.958Z,7.82
2022-10-09T10:11:07.719Z,9.80
2022-10-09T10:12:17.341Z,9.02
2022-10-09T10:13:22.429Z,6.70
2022-10-09T10:14:24.658Z,5.82
2022-10-09T10:15:28.858Z,8.05
2022-10-09T10:16:34.255Z,7.95
2022-10-09T10:17:37.337Z,10.25
2022-10-09T10:18:41.635Z,11.82
2022-10-09T10:19:50.666Z,8.52
2022-10-09T10:20:54.604Z,9.40
2022-10-09T10:21:57.639Z,6.10
2022-10-09T10:23:00.520Z,7.20
2022-10-09T10:24:05.549Z,6.22
2022-10-09T10:25:16.269Z,9.95
2022-10-09T10:26:24.612Z,7.15
2022-10-09T10:27:33.200Z,12.85
2022-10-09T10:28:45.248Z,8.88
2022-10-09T10:29:47.634Z,7.45
2022-10-09T10:30:50.518Z,7.65
2022-10-09T10:31:59.692Z,6.47
2022-10-09T10:33:05.986Z,7.47
2022-10-09T10:34:16.635Z,5.82
2022-10-09T10:35:23.096Z,10.02
2022-10-09T10:36:27.711Z,7.05
2022-10-09T10:37:34.053Z,6.90
2022-10-09T10:38:41.902Z,8.82
2022-10-09T10:39:49.991Z,6.25
2022-10-09T10:40:56.636Z,7.50
2022-10-09T10:42:01.237Z,8.38
2022-10-09T10:43:13.553Z,5.70
2022-10-09T10:44:23.053Z,10.07
2022-10-09T10:45:30.893Z,4.75
2022-10-09T10:46:37.222Z,5.43
2022-10-09T10:47:44.936Z,7.20
2022-10-09T10:48:47.604Z,5.45
2022-10-09T10:49:49.393Z,7.22
2022-10-09T10:51:01.799Z,6.53
2022-10-09T10:52:14.995Z,7.57
2022-10-09T10:53:27.656Z,5.30
2022-10-09T10:54:38.611Z,7.65
2022-10-09T10:55:50.691Z,8.98
2022-10-09T10:56:58.758Z,6.80
2022-10-09T10:58:08.988Z,7.43
2022-10-09T10:59:28.557Z,3.13
2022-10-09T11:00:33.089Z,5.85
2022-10-09T11:01:44.005Z,3.28
2022-10-09T11:03:14.607Z,5.88
2022-10-09T11:04:33.226Z,4.88
2022-10-09T11:05:45.183Z,3.63
2022-10-09T11:06:55.492Z,7.53
2022-10-09T11:08:16.147Z,7.43
2022-10-09T11:09:23.074Z,6.35
2022-10-09T11:10:29.601Z,6.65
2022-10-09T11:11:38.708Z,6.25
2022-10-09T11:12:48.667Z,5.03
2022-10-09T11:13:59.384Z,9.02
2022-10-09T11:15:12.249Z,7.20
2022-10-09T11:16:29.085Z,4.85
2022-10-09T11:17:40.151Z,7.15
2022-10-09T11:18:57.530Z,6.55
2022-10-09T11:20:14.672Z,6.30
2022-10-09T11:21:37.390Z,6.28
2022-10-09T11:22:47.983Z,4.93
2022-10-09T11:24:03.177Z,6.72
2022-10-09T11:25:21.123Z,4.55
2022-10-09T11:26:30.558Z,3.58
2022-10-09T11:27:39.482Z,3.97
2022-10-09T11:28:45.850Z,6.20
2022-10-09T11:29:52.677Z,3.53
2022-10-09T11:31:01.806Z,7.35
2022-10-09T11:32:11.709Z,7.45
2022-10-09T11:33:27.332Z,6.13
2022-10-09T11:34:33.232Z,7.10
2022-10-09T11:35:40.370Z,5.05
2022-10-09T11:36:43.192Z,8.98
2022-10-09T11:37:52.306Z,7.18
2022-10-09T11:38:59.476Z,7.00
2022-10-09T11:40:05.764Z,7.10
2022-10-09T11:41:07.778Z,2.97
2022-10-09T11:42:11.946Z,3.50
2022-10-09T11:43:31.978Z,6.25
2022-10-09T11:44:44.178Z,4.15
2022-10-09T11:45:50.948Z,4.05
2022-10-09T11:47:01.745Z,5.82
2022-10-09T11:48:08.581Z,6.18
2022-10-09T11:49:17.208Z,7.60
2022-10-09T11:50:32.742Z,7.95
2022-10-09T11:51:43.808Z,8.00
2022-10-09T11:52:54.463Z,20.35
2022-10-09T11:53:57.247Z,7.13
2022-10-09T11:55:08.176Z,6.88
2022-10-09T11:56:22.859Z,4.97
2022-10-09T11:57:28.731Z,4.82
2022-10-09T11:58:30.279Z,4.85
2022-10-09T11:59:33.595Z,5.93
2022-10-09T12:00:36.550Z,3.63
2022-10-09T12:01:40.329Z,4.28
2022-10-09T12:02:43.887Z,4.68
2022-10-09T12:03:45.491Z,6.15
2022-10-09T12:04:55.413Z,6.68
2022-10-09T12:06:06.896Z,4.88
2022-10-09T12:07:08.519Z,9.38
2022-10-09T12:08:16.824Z,5.03
2022-10-09T12:09:24.093Z,7.38
2022-10-09T12:10:31.363Z,5.80
2022-10-09T12:11:34.524Z,7.93
2022-10-09T12:12:36.517Z,6.72
2022-10-09T12:13:45.296Z,6.25
2022-10-09T12:14:49.274Z,5.53
2022-10-09T12:15:55.134Z,4.28
2022-10-09T12:16:57.176Z,4.50
2022-10-09T12:18:00.059Z,3.92
2022-10-09T12:19:03.902Z,4.90
2022-10-09T12:20:14.045Z,8.60
2022-10-09T12:21:23.305Z,5.07
2022-10-09T12:22:30.380Z,3.78
2022-10-09T12:23:36.085Z,5.93
2022-10-09T12:24:40.760Z,5.72
2022-10-09T12:25:44.642Z,4.00
2022-10-09T12:26:47.585Z,6.55
2022-10-09T12:27:53.397Z,6.03
2022-10-09T12:28:57.500Z,6.32
2022-10-09T12:30:07.060Z,10.07
2022-10-09T12:31:18.479Z,7.53
2022-10-09T12:33:36.651Z,6.55
2022-10-09T12:34:45.221Z,3.65
2022-10-09T12:35:56.919Z,4.80
2022-10-09T12:37:10.947Z,5.45
2022-10-09T12:38:17.106Z,3.78
2022-10-09T12:39:21.156Z,5.97
2022-10-09T12:40:24.965Z,9.02
2022-10-09T12:41:29.750Z,6.00
2022-10-09T12:43:44.457Z,4.38
2022-10-09T12:44:48.086Z,6.00
2022-10-09T12:45:51.928Z,4.93
2022-10-09T12:46:53.695Z,5.90
2022-10-09T12:47:56.856Z,6.70
2022-10-09T12:49:02.786Z,5.78
2022-10-09T12:50:18.969Z,6.40
2022-10-09T12:51:24.192Z,6.60
2022-10-09T12:52:25.906Z,10.30
2022-10-09T12:53:28.245Z,7.47
2022-10-09T12:54:31.199Z,9.35
2022-10-09T12:55:35.952Z,9.10
2022-10-09T12:56:38.662Z,4.43
2022-10-09T12:57:40.311Z,6.93
2022-10-09T12:58:42.041Z,3.55
2022-10-09T12:59:45.783Z,5.90
2022-10-09T13:00:49.768Z,5.43
2022-10-09T13:01:56.479Z,6.38
2022-10-09T13:02:58.217Z,6.40
2022-10-09T13:04:02.335Z,6.03
2022-10-09T13:05:04.563Z,8.50
2022-10-09T13:06:08.412Z,4.97
2022-10-09T13:07:19.813Z,4.63
2022-10-09T13:09:28.415Z,5.68
2022-10-09T13:10:30.089Z,5.85
2022-10-09T13:11:34.136Z,3.97
2022-10-09T13:12:35.693Z,6.28
2022-10-09T13:13:37.934Z,7.47
2022-10-09T13:14:43.523Z,8.70
2022-10-09T13:15:45.183Z,6.05
2022-10-09T13:16:46.669Z,7.05
2022-10-09T13:17:48.465Z,6.40
2022-10-09T13:18:56.915Z,6.03
2022-10-09T13:20:01.483Z,9.18
2022-10-09T13:21:05.820Z,5.35
2022-10-09T13:22:18.467Z,8.43
2022-10-09T13:23:27.810Z,5.95
2022-10-09T13:24:29.250Z,7.68
2022-10-09T13:25:34.452Z,4.53
2022-10-09T13:26:37.905Z,9.80
2022-10-09T13:27:39.976Z,7.28
2022-10-09T13:28:41.502Z,6.40
2022-10-09T13:29:43.271Z,5.85
2022-10-09T13:30:44.863Z,6.35
2022-10-09T13:31:46.349Z,6.45
2022-10-09T13:32:47.866Z,6.18
2022-10-09T13:33:49.347Z,3.88
2022-10-09T13:34:51.535Z,6.93
2022-10-09T13:35:54.339Z,6.45
2022-10-09T13:36:56.039Z,5.75
2022-10-09T13:37:57.478Z,7.10
2022-10-09T13:38:58.960Z,7.38
2022-10-09T13:40:00.814Z,7.68
2022-10-09T13:41:02.358Z,7.75
2022-10-09T13:42:04.327Z,4.43
2022-10-09T13:43:05.989Z,6.13
2022-10-09T13:44:07.480Z,7.50
2022-10-09T13:45:10.628Z,7.65
2022-10-09T13:46:12.172Z,7.35
2022-10-09T13:47:13.762Z,7.65
2022-10-09T13:48:15.424Z,6.78
2022-10-09T13:49:16.925Z,9.80
2022-10-09T13:50:18.473Z,7.50
2022-10-09T13:51:21.293Z,6.97
2022-10-09T13:52:22.789Z,8.13
2022-10-09T13:53:24.320Z,9.70
2022-10-09T13:54:25.874Z,6.13
2022-10-09T13:55:27.405Z,7.05
2022-10-09T13:56:29.229Z,9.02
2022-10-09T13:57:30.832Z,9.15
2022-10-09T13:58:32.279Z,7.57
2022-10-09T13:59:34.100Z,5.90